Time;durP1;ratioP1;P1;durP2;ratioP2;P2;SDS_P1;SDS_P2;PMS_P1;PMS_P2;Temp;Humidity;BMP_temperature;BMP_pressure;BME280_temperature;BME280_humidity;BME280_pressure;Samples;Min_cycle;Max_cycle;Signal;HPM_P1;HPM_P2
2021/04/10 00:00:49;;;;;;;51.83;21.12;;;;;;;-1.86;81.58;100332.08;1736653;82;21575;-71
2021/04/10 00:03:16;;;;;;;56.08;21.60;;;;;;;-1.87;81.59;100330.95;1736707;82;21195;-70
2021/04/10 00:05:43;;;;;;;48.10;19.65;;;;;;;-1.89;81.62;100333.85;1736654;82;22124;-70
2021/04/10 00:08:11;;;;;;;41.80;17.98;;;;;;;-1.90;81.63;100329.51;1736505;82;21190;-70
2021/04/10 00:10:39;;;;;;;54.90;20.48;;;;;;;-1.91;81.81;100329.72;1736720;82;21041;-70
2021/04/10 00:13:07;;;;;;;43.45;19.80;;;;;;;-1.93;81.84;100328.59;1736728;82;21523;-70
2021/04/10 00:15:34;;;;;;;46.70;20.43;;;;;;;-1.95;81.91;100325.81;1736591;82;21171;-70
2021/04/10 00:18:03;;;;;;;41.88;18.90;;;;;;;-1.98;81.92;100324.89;1736782;82;21571;-69
2021/04/10 00:20:31;;;;;;;42.93;19.70;;;;;;;-2.00;82.12;100318.38;1736496;81;21586;-70
2021/04/10 00:22:58;;;;;;;41.83;18.98;;;;;;;-2.01;82.27;100323.45;1755783;81;20989;-69
2021/04/10 00:25:26;;;;;;;40.60;18.62;;;;;;;-2.05;82.29;100322.23;1767086;79;20938;-70
2021/04/10 00:27:57;;;;;;;44.85;20.17;;;;;;;-2.07;82.40;100321.63;1767107;81;21147;-69
2021/04/10 00:30:24;;;;;;;43.42;19.48;;;;;;;-2.11;82.46;100319.88;1767225;80;22703;-70
2021/04/10 00:32:52;;;;;;;44.13;18.95;;;;;;;-2.13;82.54;100319.27;1766989;81;21555;-70
2021/04/10 00:35:19;;;;;;;43.85;19.15;;;;;;;-2.16;82.61;100318.36;1766979;81;21159;-69
2021/04/10 00:37:47;;;;;;;48.60;20.00;;;;;;;-2.20;82.78;100322.51;1765314;81;21638;-70
2021/04/10 00:40:15;;;;;;;46.83;19.65;;;;;;;-2.21;82.93;100323.55;1764245;81;21476;-69
2021/04/10 00:42:42;;;;;;;31.82;15.53;;;;;;;-2.22;83.08;100323.24;1763792;81;21617;-69
2021/04/10 00:45:11;;;;;;;36.20;16.40;;;;;;;-2.23;83.18;100331.52;1764258;81;20986;-69
2021/04/10 00:47:38;;;;;;;39.15;17.20;;;;;;;-2.17;83.58;100328.81;1764241;81;21172;-69
2021/04/10 00:50:08;;;;;;;34.75;16.93;;;;;;;-2.11;83.34;100327.12;1763946;80;21139;-68
2021/04/10 00:52:36;;;;;;;40.92;17.40;;;;;;;-2.12;83.11;100326.30;1764284;81;21073;-68
2021/04/10 00:55:05;;;;;;;31.80;16.50;;;;;;;-2.14;83.00;100324.87;1764202;80;21576;-69
2021/04/10 00:57:34;;;;;;;40.90;16.75;;;;;;;-2.17;83.06;100322.60;1764131;80;20950;-68
2021/04/10 01:00:02;;;;;;;35.58;16.90;;;;;;;-2.20;83.12;100322.51;1764366;81;21646;-68
2021/04/10 01:02:32;;;;;;;37.05;17.67;;;;;;;-2.24;83.17;100326.66;1764196;81;20922;-69
2021/04/10 01:05:01;;;;;;;35.68;17.12;;;;;;;-2.27;83.31;100325.74;1764149;80;21460;-69
2021/04/10 01:07:28;;;;;;;37.08;17.35;;;;;;;-2.28;83.42;100320.58;1764312;81;21193;-69
2021/04/10 01:09:56;;;;;;;33.40;16.30;;;;;;;-2.27;83.55;100321.70;1746791;81;21567;-69
2021/04/10 01:12:33;;;;;;;33.83;16.45;;;;;;;-2.24;83.70;100324.49;1764230;81;20990;-69
2021/04/10 01:15:36;;;;;;;32.50;15.48;;;;;;;-2.21;83.68;100324.89;1756958;81;20995;-70
2021/04/10 01:18:08;;;;;;;;;;;;;;;-2.18;83.65;100322.30;1733008;80;20970;-69
2021/04/10 01:20:50;;;;;;;39.75;16.57;;;;;;;-2.16;83.65;100323.73;1764297;81;21200;-69
2021/04/10 01:23:34;;;;;;;;;;;;;;;-2.17;83.52;100324.77;1790756;80;21172;-69
2021/04/10 01:26:10;;;;;;;36.88;16.50;;;;;;;-2.20;83.52;100321.16;1787183;80;20577;-68
2021/04/10 01:28:59;;;;;;;47.73;18.70;;;;;;;-2.22;83.51;100321.07;1786896;80;21159;-68
2021/04/10 01:31:42;;;;;;;45.40;19.65;;;;;;;-2.25;83.56;100320.16;1786905;80;21155;-69
2021/04/10 01:34:18;;;;;;;43.33;17.82;;;;;;;-2.25;83.58;100318.80;1762045;80;21452;-69
2021/04/10 01:36:46;;;;;;;39.38;17.87;;;;;;;-2.26;83.60;100321.19;1786399;80;21216;-69
2021/04/10 01:39:13;;;;;;;40.15;16.73;;;;;;;-2.25;83.67;100320.98;1733702;80;21121;-69
2021/04/10 01:41:47;;;;;;;33.20;16.23;;;;;;;-2.23;83.62;100319.42;1786956;80;21588;-69
2021/04/10 01:44:17;;;;;;;35.05;16.67;;;;;;;-2.21;83.52;100325.41;1786997;80;21081;-69
2021/04/10 01:46:46;;;;;;;39.27;18.30;;;;;;;-2.22;83.45;100316.52;1757073;80;22402;-69
2021/04/10 01:49:14;;;;;;;33.10;16.17;;;;;;;-2.22;83.35;100321.89;1786971;80;20943;-68
2021/04/10 01:51:42;;;;;;;36.70;18.07;;;;;;;-2.21;83.31;100321.38;1787040;80;21116;-69
2021/04/10 01:54:09;;;;;;;35.43;17.35;;;;;;;-2.22;83.27;100325.93;1758386;80;21010;-69
2021/04/10 01:56:39;;;;;;;42.90;18.67;;;;;;;-2.23;83.19;100326.14;1786895;80;21168;-69
2021/04/10 01:59:08;;;;;;;32.20;14.85;;;;;;;-2.24;83.23;100328.53;1787098;80;22426;-69
2021/04/10 02:01:53;;;;;;;36.03;16.80;;;;;;;-2.25;83.19;100323.67;1786983;80;20903;-69
2021/04/10 02:04:23;;;;;;;31.12;15.65;;;;;;;-2.22;83.47;100321.89;1758613;80;21496;-69
2021/04/10 02:06:51;;;;;;;36.23;16.87;;;;;;;-2.16;83.39;100329.63;1786868;80;21156;-69
2021/04/10 02:09:20;;;;;;;38.67;16.67;;;;;;;-2.14;83.20;100325.69;1786933;80;21109;-69
2021/04/10 02:12:09;;;;;;;34.60;18.92;;;;;;;-2.09;83.07;100327.73;1857124;75;27757;-68
2021/04/10 02:14:38;;;;;;;31.33;16.07;;;;;;;-2.06;82.95;100327.31;1840240;77;21078;-69
2021/04/10 02:17:09;;;;;;;36.05;16.73;;;;;;;-2.00;82.70;100331.84;1841288;78;21179;-68
2021/04/10 02:19:39;;;;;;;33.63;15.05;;;;;;;-1.98;82.62;100331.63;1839754;78;20976;-71
2021/04/10 02:22:09;;;;;;;35.88;15.50;;;;;;;-1.96;82.57;100332.23;1841175;78;20917;-70
2021/04/10 02:24:37;;;;;;;33.20;15.18;;;;;;;-1.94;82.46;100331.50;1811025;78;20929;-71
2021/04/10 02:27:07;;;;;;;29.20;14.90;;;;;;;-1.92;82.25;100336.14;1790449;79;20926;-70
2021/04/10 02:29:36;;;;;;;32.60;15.30;;;;;;;-1.92;82.16;100336.14;1780974;80;21788;-70
2021/04/10 02:32:14;;;;;;;30.37;14.87;;;;;;;-1.89;82.10;100330.34;1781837;80;21033;-71
2021/04/10 02:35:14;;;;;;;31.77;14.47;;;;;;;-1.87;81.97;100333.64;1781671;79;21039;-71
2021/04/10 02:37:42;;;;;;;35.58;14.35;;;;;;;-1.83;81.80;100334.34;1781867;79;21606;-72
2021/04/10 02:40:15;;;;;;;30.35;13.22;;;;;;;-1.82;81.51;100328.44;1781903;80;21162;-70
2021/04/10 02:42:47;;;;;;;25.90;12.18;;;;;;;-1.79;81.36;100334.73;1781646;80;21144;-71
2021/04/10 02:45:25;;;;;;;30.85;13.93;;;;;;;-1.76;81.21;100331.61;1782076;80;20942;-70
2021/04/10 02:47:58;;;;;;;29.18;13.80;;;;;;;-1.75;80.93;100320.62;1757917;79;20962;-71
2021/04/10 02:50:26;;;;;;;27.20;13.30;;;;;;;-1.77;80.70;100322.70;1782922;79;21080;-71
2021/04/10 02:52:56;;;;;;;31.85;13.55;;;;;;;-1.78;80.62;100328.31;1803429;79;21088;-70
2021/04/10 02:55:37;;;;;;;27.55;13.62;;;;;;;-1.80;80.55;100325.01;1803578;79;22241;-70
2021/04/10 02:58:11;;;;;;;30.45;13.25;;;;;;;-1.82;80.53;100327.09;1803217;79;20919;-70
2021/04/10 03:00:43;;;;;;;33.42;14.23;;;;;;;-1.82;80.62;100323.88;1803319;79;21041;-70
2021/04/10 03:03:14;;;;;;;32.70;14.38;;;;;;;-1.81;80.53;100326.05;1803232;79;21547;-71
2021/04/10 03:05:43;;;;;;;34.40;13.83;;;;;;;-1.82;80.47;100325.74;1788274;79;21104;-70
2021/04/10 03:08:19;;;;;;;33.02;14.53;;;;;;;-1.84;80.45;100325.13;1771748;81;21468;-70
2021/04/10 03:10:48;;;;;;;30.82;13.83;;;;;;;-1.87;80.58;100329.08;1753437;80;21036;-71
2021/04/10 03:13:16;;;;;;;33.58;14.53;;;;;;;-1.83;80.67;100332.99;1775086;80;21116;-70
2021/04/10 03:15:45;;;;;;;30.65;14.25;;;;;;;-1.80;80.48;100332.56;1775295;80;21483;-70
2021/04/10 03:18:14;;;;;;;29.95;14.03;;;;;;;-1.80;80.37;100333.08;1775162;79;21603;-70
2021/04/10 03:20:44;;;;;;;33.33;14.78;;;;;;;-1.79;80.24;100335.56;1774930;80;21353;-70
2021/04/10 03:23:12;;;;;;;29.42;15.08;;;;;;;-1.73;80.01;100339.22;1761265;80;21611;-70
2021/04/10 03:25:40;;;;;;;32.85;14.43;;;;;;;-1.71;79.72;100336.62;1756113;80;21618;-70
2021/04/10 03:28:10;;;;;;;31.17;14.30;;;;;;;-1.64;79.55;100334.41;1756083;80;21147;-71
2021/04/10 03:30:39;;;;;;;32.20;15.05;;;;;;;-1.61;79.26;100334.80;1756266;81;21159;-70
2021/04/10 03:33:07;;;;;;;38.05;14.98;;;;;;;-1.59;79.02;100338.10;1756099;81;21585;-70
2021/04/10 03:35:36;;;;;;;32.90;16.10;;;;;;;-1.56;78.91;100340.88;1755960;80;21048;-70
2021/04/10 03:38:04;;;;;;;32.00;15.30;;;;;;;-1.56;78.84;100332.80;1731163;81;20933;-70
2021/04/10 03:40:34;;;;;;;35.83;16.80;;;;;;;-1.55;78.79;100340.66;1731485;81;20977;-69
2021/04/10 03:43:02;;;;;;;37.28;16.97;;;;;;;-1.52;78.73;100338.05;1756857;81;20996;-70
2021/04/10 03:45:31;;;;;;;41.53;17.23;;;;;;;-1.49;78.76;100340.31;1756230;81;22123;-69
2021/04/10 03:48:01;;;;;;;38.73;17.90;;;;;;;-1.45;78.81;100343.70;1756678;81;20980;-69
2021/04/10 03:50:30;;;;;;;34.85;17.32;;;;;;;-1.39;78.76;100343.36;1755572;81;20969;-69
2021/04/10 03:52:58;;;;;;;35.52;16.23;;;;;;;-1.36;78.79;100342.40;1756832;81;20940;-70
2021/04/10 03:55:26;;;;;;;32.90;16.97;;;;;;;-1.34;78.83;100347.05;1756880;81;21067;-70
2021/04/10 03:57:55;;;;;;;36.13;16.80;;;;;;;-1.29;78.89;100349.61;1756852;81;21706;-70
2021/04/10 04:00:23;;;;;;;37.15;15.88;;;;;;;-1.26;78.92;100350.52;1756786;81;20953;-70
2021/04/10 04:03:01;;;;;;;39.35;17.00;;;;;;;-1.18;78.93;100352.94;1873762;75;22459;-68
2021/04/10 04:05:28;;;;;;;34.95;17.42;;;;;;;-1.17;78.74;100350.03;1829582;77;21440;-70
2021/04/10 04:07:57;;;;;;;35.52;16.25;;;;;;;-1.11;78.64;100354.51;1808615;79;21206;-70
2021/04/10 04:10:25;;;;;;;37.48;18.05;;;;;;;-1.05;78.49;100350.94;1808581;79;20896;-70
2021/04/10 04:12:54;;;;;;;38.73;17.77;;;;;;;-0.97;78.41;100354.40;1808318;78;20948;-70
2021/04/10 04:15:21;;;;;;;29.95;15.50;;;;;;;-0.90;78.30;100346.56;1808611;79;20924;-70
2021/04/10 04:17:48;;;;;;;37.03;16.73;;;;;;;-0.81;78.03;100356.53;1808721;79;21076;-71
2021/04/10 04:20:17;;;;;;;34.60;17.48;;;;;;;-0.72;77.79;100351.16;1808717;78;21180;-71
2021/04/10 04:22:44;;;;;;;34.43;17.10;;;;;;;-0.62;77.58;100356.05;1808622;79;21589;-70
2021/04/10 04:25:12;;;;;;;33.55;15.45;;;;;;;-0.51;77.10;100352.59;1808032;79;20913;-70
2021/04/10 04:27:41;;;;;;;33.73;16.35;;;;;;;-0.41;76.55;100359.11;1806907;79;21006;-70
2021/04/10 04:30:10;;;;;;;30.65;15.95;;;;;;;-0.30;75.83;100357.55;1777861;79;20933;-70
2021/04/10 04:32:38;;;;;;;32.40;15.78;;;;;;;-0.20;75.24;100352.97;1806910;79;21780;-70
2021/04/10 04:35:06;;;;;;;31.82;15.32;;;;;;;-0.10;75.27;100356.80;1752601;79;21023;-71
2021/04/10 04:37:34;;;;;;;32.93;15.90;;;;;;;0.00;75.25;100354.35;1807718;79;20968;-70
2021/04/10 04:40:06;;;;;;;33.83;15.20;;;;;;;0.10;75.07;100357.86;1778370;79;21586;-72
2021/04/10 04:42:33;;;;;;;32.35;17.12;;;;;;;0.21;74.85;100356.27;1806886;78;21058;-70
2021/04/10 04:45:01;;;;;;;30.65;15.55;;;;;;;0.30;74.91;100354.38;1806876;79;21849;-70
2021/04/10 04:47:29;;;;;;;31.73;15.03;;;;;;;0.41;74.63;100352.78;1806925;78;21011;-72
2021/04/10 04:49:57;;;;;;;32.03;14.20;;;;;;;0.53;74.04;100355.52;1807816;78;21141;-70
2021/04/10 04:52:24;;;;;;;32.10;15.25;;;;;;;0.65;72.68;100354.47;1806986;79;21137;-70
2021/04/10 04:54:52;;;;;;;27.85;14.70;;;;;;;0.80;72.20;100350.52;1806911;79;21490;-70
2021/04/10 04:57:19;;;;;;;30.70;13.83;;;;;;;0.95;71.93;100349.54;1806855;79;21189;-69
2021/04/10 04:59:47;;;;;;;31.55;15.25;;;;;;;1.08;71.15;100346.62;1806804;79;21570;-70
2021/04/10 05:02:15;;;;;;;27.73;14.30;;;;;;;1.23;71.03;100338.84;1809826;79;21606;-71
2021/04/10 05:04:42;;;;;;;29.30;13.88;;;;;;;1.37;70.45;100339.95;1812507;79;20932;-70
2021/04/10 05:07:10;;;;;;;26.80;13.48;;;;;;;1.50;69.96;100346.47;1812557;79;20920;-71
2021/04/10 05:09:37;;;;;;;28.80;13.35;;;;;;;1.63;69.66;100344.34;1812650;79;21657;-69
2021/04/10 05:12:07;;;;;;;26.90;13.22;;;;;;;1.76;69.68;100345.12;1812488;79;20991;-68
2021/04/10 05:14:35;;;;;;;26.20;14.23;;;;;;;1.87;69.30;100345.09;1812017;78;21105;-69
2021/04/10 05:17:03;;;;;;;22.27;12.43;;;;;;;1.98;68.75;100349.66;1811967;78;21063;-70
2021/04/10 05:19:31;;;;;;;28.07;12.40;;;;;;;2.11;68.58;100351.80;1811997;79;20925;-70
2021/04/10 05:21:59;;;;;;;22.37;11.78;;;;;;;2.22;68.32;100357.72;1811948;78;21852;-70
2021/04/10 05:24:27;;;;;;;23.92;12.45;;;;;;;2.34;67.79;100346.27;1811902;79;20948;-71
2021/04/10 05:26:54;;;;;;;25.20;13.05;;;;;;;2.48;67.45;100350.33;1812632;77;20940;-71
2021/04/10 05:29:22;;;;;;;26.00;13.85;;;;;;;2.60;67.77;100349.74;1813320;79;21047;-68
2021/04/10 05:31:50;;;;;;;23.65;13.38;;;;;;;2.74;67.99;100350.27;1811971;79;20928;-67
2021/04/10 05:34:17;;;;;;;30.17;14.63;;;;;;;2.87;68.11;100344.52;1811991;79;21189;-67
2021/04/10 05:36:44;;;;;;;37.10;21.40;;;;;;;2.99;67.48;100345.23;1811909;79;21015;-70
2021/04/10 05:39:12;;;;;;;31.75;12.93;;;;;;;3.11;68.04;100349.23;1811989;79;20932;-70
2021/04/10 05:41:39;;;;;;;24.07;12.75;;;;;;;3.26;65.02;100347.29;1811965;78;21059;-70
2021/04/10 05:44:07;;;;;;;23.42;12.63;;;;;;;3.45;65.44;100351.92;1812506;77;20881;-70
2021/04/10 05:46:34;;;;;;;20.35;11.53;;;;;;;3.63;64.00;100345.64;1812454;78;22272;-71
2021/04/10 05:49:02;;;;;;;22.10;11.65;;;;;;;3.79;63.09;100352.10;1811924;79;21153;-71
2021/04/10 05:51:29;;;;;;;25.45;13.98;;;;;;;3.94;61.44;100350.13;1812869;79;20983;-71
2021/04/10 05:53:56;;;;;;;25.80;14.10;;;;;;;4.09;61.04;100350.28;1812983;79;21565;-70
2021/04/10 05:56:24;;;;;;;29.80;14.07;;;;;;;4.25;59.97;100349.39;1812910;78;20980;-71
2021/04/10 05:58:51;;;;;;;34.40;12.35;;;;;;;4.38;59.91;100356.33;1812703;79;21366;-69
2021/04/10 06:01:19;;;;;;;21.40;11.10;;;;;;;4.50;59.11;100354.29;1811810;79;21209;-69
2021/04/10 06:03:46;;;;;;;18.42;9.68;;;;;;;4.62;58.87;100354.14;1813462;79;20967;-64
2021/04/10 06:06:13;;;;;;;22.05;10.95;;;;;;;4.72;57.46;100356.93;1813555;77;21023;-64
2021/04/10 06:08:41;;;;;;;21.02;11.12;;;;;;;4.80;57.54;100359.72;1813486;77;21451;-63
2021/04/10 06:11:09;;;;;;;17.73;10.20;;;;;;;4.85;58.01;100355.69;1813207;79;21146;-66
2021/04/10 06:13:37;;;;;;;19.23;10.15;;;;;;;4.95;57.71;100353.06;1813374;79;21656;-66
2021/04/10 06:16:07;;;;;;;22.60;10.28;;;;;;;5.06;56.90;100354.79;1813143;79;20983;-67
2021/04/10 06:18:34;;;;;;;28.45;11.95;;;;;;;5.19;56.41;100354.89;1811783;78;21178;-64
2021/04/10 06:21:03;;;;;;;20.43;11.35;;;;;;;5.19;56.41;100354.89;1811176;79;20948;-64
2021/04/10 06:23:30;;;;;;;17.50;10.43;;;;;;;5.26;56.13;100349.48;1811041;79;21585;-64
2021/04/10 06:25:58;;;;;;;24.60;12.63;;;;;;;5.35;55.70;100351.72;1810582;79;21178;-64
2021/04/10 06:28:26;;;;;;;24.35;11.50;;;;;;;5.42;55.52;100347.69;1811014;79;21114;-64
2021/04/10 06:30:53;;;;;;;20.20;11.97;;;;;;;5.53;54.98;100352.11;1810996;79;21173;-63
2021/04/10 06:33:23;;;;;;;20.25;10.88;;;;;;;5.66;55.19;100349.47;1811160;79;21566;-64
2021/04/10 06:35:51;;;;;;;22.10;10.60;;;;;;;5.79;55.81;100343.52;1811880;79;21368;-63
2021/04/10 06:38:19;;;;;;;20.30;10.98;;;;;;;5.92;55.20;100349.06;1811901;79;20929;-63
2021/04/10 06:40:47;;;;;;;17.05;9.95;;;;;;;6.07;54.35;100356.50;1811920;78;21110;-63
2021/04/10 06:43:17;;;;;;;20.12;10.40;;;;;;;6.17;53.10;100352.45;1762884;81;20990;-66
2021/04/10 06:45:44;;;;;;;21.37;10.35;;;;;;;6.25;53.46;100351.39;1755593;80;20956;-64
2021/04/10 06:48:13;;;;;;;23.07;11.20;;;;;;;6.36;52.94;100347.30;1756150;81;22121;-65
2021/04/10 06:50:42;;;;;;;28.27;10.53;;;;;;;6.46;53.38;100350.88;1755441;81;21591;-64
2021/04/10 06:53:15;;;;;;;42.90;11.43;;;;;;;6.59;51.89;100356.37;1755205;81;21051;-65
2021/04/10 06:55:49;;;;;;;34.35;12.55;;;;;;;6.68;52.08;100352.02;1755658;81;28162;-64
2021/04/10 06:58:27;;;;;;;26.30;10.85;;;;;;;6.80;51.13;100349.04;1754998;81;22174;-64
2021/04/10 07:00:55;;;;;;;31.10;12.15;;;;;;;6.92;50.82;100359.16;1755302;80;22095;-64
2021/04/10 07:03:22;;;;;;;27.67;10.60;;;;;;;7.05;51.62;100349.03;1751160;80;20934;-63
2021/04/10 07:05:53;;;;;;;26.12;11.43;;;;;;;7.18;49.57;100342.20;1748998;81;21052;-63
2021/04/10 07:08:22;;;;;;;21.68;10.30;;;;;;;7.29;50.08;100351.48;1720942;82;21460;-64
2021/04/10 07:10:51;;;;;;;39.42;12.60;;;;;;;7.42;49.24;100357.48;1749059;81;20966;-63
2021/04/10 07:13:18;;;;;;;34.18;11.12;;;;;;;7.51;48.84;100344.33;1749629;82;23517;-63
2021/04/10 07:15:46;;;;;;;24.18;9.60;;;;;;;7.62;48.36;100336.93;1748954;82;21920;-64
2021/04/10 07:18:14;;;;;;;26.62;10.78;;;;;;;7.72;47.60;100349.20;1749007;82;21020;-64
2021/04/10 07:20:42;;;;;;;33.18;12.03;;;;;;;7.80;48.89;100351.38;1749003;82;21092;-64
2021/04/10 07:23:14;;;;;;;27.35;10.23;;;;;;;7.99;47.66;100353.50;1749096;82;20926;-64
2021/04/10 07:25:44;;;;;;;33.10;10.10;;;;;;;8.13;45.95;100345.77;1749357;80;22262;-64
2021/04/10 07:28:26;;;;;;;28.40;10.40;;;;;;;8.23;45.32;100351.19;1748955;82;21005;-64
2021/04/10 07:31:03;;;;;;;17.32;9.18;;;;;;;8.29;45.00;100351.44;1729072;82;21008;-64
2021/04/10 07:33:35;;;;;;;23.45;9.13;;;;;;;8.38;45.87;100352.25;1749265;80;20933;-64
2021/04/10 07:36:06;;;;;;;26.27;9.63;;;;;;;8.53;44.80;100350.80;1748637;80;21195;-64
2021/04/10 07:38:36;;;;;;;31.02;10.43;;;;;;;8.81;43.78;100353.34;1748289;80;21271;-64
2021/04/10 07:41:13;;;;;;;27.82;10.10;;;;;;;9.13;44.55;100350.91;1748775;82;21048;-64
2021/04/10 07:43:43;;;;;;;29.82;10.20;;;;;;;9.56;42.80;100353.23;1748101;82;20961;-64
2021/04/10 07:46:23;;;;;;;29.75;10.20;;;;;;;9.98;42.67;100343.98;1746562;80;21151;-64
2021/04/10 07:49:07;;;;;;;26.75;9.63;;;;;;;10.30;40.63;100346.91;1749522;80;21111;-64
2021/04/10 07:51:53;;;;;;;20.95;8.98;;;;;;;10.52;40.76;100340.83;1749006;80;21208;-64
2021/04/10 07:54:39;;;;;;;20.90;7.97;;;;;;;10.82;39.01;100343.69;1749560;82;21099;-64
2021/04/10 07:57:12;;;;;;;20.48;7.90;;;;;;;11.00;37.94;100347.51;1750185;82;21003;-64
2021/04/10 07:59:53;;;;;;;25.92;8.60;;;;;;;11.14;38.37;100345.08;1750638;82;20949;-64
2021/04/10 08:02:22;;;;;;;17.17;7.85;;;;;;;11.33;36.80;100340.91;1752289;81;20961;-64
2021/04/10 08:04:59;;;;;;;16.70;6.85;;;;;;;11.39;35.80;100352.64;1734282;80;20948;-64
2021/04/10 08:07:30;;;;;;;22.05;8.10;;;;;;;11.52;33.91;100344.42;1759648;81;21009;-64
2021/04/10 08:09:59;;;;;;;19.37;7.72;;;;;;;11.67;35.30;100335.05;1759738;81;20913;-63
2021/04/10 08:12:33;;;;;;;18.12;7.03;;;;;;;11.83;35.13;100332.30;1759706;81;21578;-63
2021/04/10 08:15:02;;;;;;;17.70;6.85;;;;;;;11.90;34.74;100332.71;1759461;81;21487;-63
2021/04/10 08:17:41;;;;;;;13.85;5.75;;;;;;;12.01;34.41;100337.45;1759713;80;21447;-63
2021/04/10 08:20:28;;;;;;;13.10;6.97;;;;;;;12.16;32.65;100328.04;1759622;80;20972;-64
2021/04/10 08:23:22;;;;;;;18.92;8.43;;;;;;;12.12;31.29;100327.05;1759690;81;20957;-64
2021/04/10 08:25:49;;;;;;;21.75;7.70;;;;;;;12.09;32.79;100328.48;1758895;81;21068;-63
2021/04/10 08:28:18;;;;;;;13.15;5.65;;;;;;;12.27;32.73;100326.70;1758040;81;21641;-66
2021/04/10 08:30:48;;;;;;;14.47;6.05;;;;;;;12.40;32.30;100339.64;1756083;81;21376;-66
2021/04/10 08:33:16;;;;;;;10.63;5.55;;;;;;;12.59;31.82;100328.48;1758138;81;21214;-64
2021/04/10 08:35:44;;;;;;;14.13;6.05;;;;;;;12.80;31.11;100337.07;1757045;81;21166;-66
2021/04/10 08:38:12;;;;;;;13.60;6.28;;;;;;;12.85;31.17;100323.98;1757138;81;21167;-65
2021/04/10 08:40:40;;;;;;;15.03;5.95;;;;;;;12.79;31.19;100325.80;1757231;81;21151;-65
2021/04/10 08:43:09;;;;;;;11.08;5.60;;;;;;;12.86;30.65;100323.42;1732517;81;21021;-65
2021/04/10 08:45:37;;;;;;;9.23;5.35;;;;;;;12.97;29.75;100328.95;1757958;80;20988;-64
2021/04/10 08:48:08;;;;;;;12.40;5.97;;;;;;;12.98;30.74;100322.30;1758878;81;20981;-64
2021/04/10 08:50:38;;;;;;;10.18;5.80;;;;;;;13.20;31.11;100320.95;1759862;81;21532;-64
2021/04/10 08:53:10;;;;;;;9.75;5.60;;;;;;;13.50;29.63;100317.95;1759836;81;21150;-64
2021/04/10 08:55:40;;;;;;;14.85;6.10;;;;;;;13.53;30.12;100320.08;1759810;81;21199;-65
2021/04/10 08:58:31;;;;;;;10.85;5.67;;;;;;;13.50;29.06;100328.17;1759813;81;21064;-64
2021/04/10 09:01:05;;;;;;;11.40;5.40;;;;;;;13.41;28.83;100320.41;1759871;81;20947;-64
2021/04/10 09:03:52;;;;;;;10.50;5.15;;;;;;;13.15;28.26;100318.30;1754220;80;21163;-65
2021/04/10 09:06:34;;;;;;;9.03;5.08;;;;;;;13.08;28.57;100318.48;1749747;80;21064;-64
2021/04/10 09:09:17;;;;;;;13.22;6.40;;;;;;;13.07;28.53;100315.48;1748975;82;22212;-63
2021/04/10 09:11:46;;;;;;;11.38;6.20;;;;;;;13.10;29.42;100316.23;1749081;82;21136;-63
2021/04/10 09:14:36;;;;;;;10.15;5.30;;;;;;;13.28;29.64;100326.84;1749051;81;21033;-64
2021/04/10 09:17:05;;;;;;;14.28;5.10;;;;;;;13.50;28.97;100320.70;1725235;82;21040;-63
2021/04/10 09:19:35;;;;;;;10.80;5.75;;;;;;;13.76;28.99;100301.52;1749126;82;21068;-64
2021/04/10 09:22:05;;;;;;;11.55;7.00;;;;;;;13.99;27.61;100302.23;1721115;82;26664;-63
2021/04/10 09:24:47;;;;;;;11.93;6.53;;;;;;;13.66;27.51;100303.75;1749038;82;21001;-64
2021/04/10 09:27:21;;;;;;;;;;;;;;;13.29;28.90;100320.98;1751728;82;20993;-65
2021/04/10 09:29:58;;;;;;;8.95;5.05;;;;;;;13.31;29.25;100306.88;1749134;82;20142;-64
2021/04/10 09:32:43;;;;;;;106.60;57.30;;;;;;;13.60;28.50;100296.17;1749136;82;21001;-64
2021/04/10 09:35:14;;;;;;;16.07;6.10;;;;;;;13.89;28.46;100295.62;1742337;82;22291;-65
2021/04/10 09:37:50;;;;;;;10.80;5.92;;;;;;;14.03;27.71;100294.94;1749138;80;21505;-65
2021/04/10 09:40:30;;;;;;;7.40;4.58;;;;;;;14.17;28.08;100294.81;1749167;81;21465;-64
2021/04/10 09:43:04;;;;;;;54.27;31.93;;;;;;;14.31;27.89;100290.53;1733621;82;21139;-64
2021/04/10 09:45:34;;;;;;;9.18;5.53;;;;;;;14.17;27.07;100286.52;1749207;82;21496;-65
2021/04/10 09:48:11;;;;;;;12.33;5.53;;;;;;;14.05;27.27;100287.71;1749199;82;22202;-64
2021/04/10 09:50:44;;;;;;;9.20;4.97;;;;;;;14.09;28.34;100286.75;1749051;80;21511;-64
2021/04/10 09:53:16;;;;;;;7.90;4.87;;;;;;;14.21;27.33;100282.80;1749182;80;21497;-65
2021/04/10 09:55:49;;;;;;;7.45;4.62;;;;;;;14.33;28.09;100282.17;1748979;80;21012;-64
2021/04/10 09:58:20;;;;;;;7.45;4.20;;;;;;;14.40;26.75;100289.41;1747057;82;21090;-64
2021/04/10 10:00:54;;;;;;;7.92;4.80;;;;;;;14.42;25.82;100274.74;1749118;80;22177;-64
2021/04/10 10:03:23;;;;;;;8.03;5.22;;;;;;;14.52;27.41;100286.02;1748897;81;20938;-64
2021/04/10 10:05:54;;;;;;;6.92;4.70;;;;;;;14.61;25.92;100270.83;1746700;82;21167;-64
2021/04/10 10:08:28;;;;;;;10.75;4.62;;;;;;;14.59;26.44;100273.10;1749048;80;21075;-65
2021/04/10 10:11:05;;;;;;;8.73;4.58;;;;;;;14.64;26.01;100272.94;1749017;82;20965;-65
2021/04/10 10:13:36;;;;;;;7.85;5.05;;;;;;;14.68;25.49;100287.16;1721242;82;22216;-64
2021/04/10 10:16:05;;;;;;;8.45;5.37;;;;;;;14.66;25.68;100272.05;1749046;82;21057;-64
2021/04/10 10:18:42;;;;;;;11.05;5.75;;;;;;;14.72;26.76;100262.45;1749105;82;21037;-64
2021/04/10 10:21:17;;;;;;;8.68;5.50;;;;;;;14.95;26.25;100259.75;1749049;82;21076;-64
2021/04/10 10:23:55;;;;;;;10.82;5.30;;;;;;;14.92;26.12;100265.13;1749074;82;21139;-64
2021/04/10 10:26:32;;;;;;;13.43;5.55;;;;;;;14.92;26.66;100261.79;1749079;81;21364;-64
2021/04/10 10:29:06;;;;;;;9.60;5.72;;;;;;;15.15;26.63;100257.66;1749041;81;21103;-64
2021/04/10 10:31:47;;;;;;;9.63;5.42;;;;;;;15.32;25.55;100254.03;1749082;81;21056;-64
2021/04/10 10:34:17;;;;;;;12.40;5.67;;;;;;;15.24;25.47;100254.05;1749377;80;21206;-64
2021/04/10 10:36:46;;;;;;;11.18;5.25;;;;;;;15.11;26.13;100262.79;1749525;82;21008;-65
2021/04/10 10:39:32;;;;;;;14.95;5.22;;;;;;;15.17;25.73;100267.00;1749020;82;21205;-65
2021/04/10 10:42:01;;;;;;;8.45;5.10;;;;;;;15.27;26.20;100254.21;1750311;81;20941;-64
2021/04/10 10:44:29;;;;;;;10.80;5.60;;;;;;;15.38;25.21;100238.88;1750659;82;21075;-64
2021/04/10 10:47:06;;;;;;;9.58;4.80;;;;;;;15.44;25.75;100240.33;1750315;80;20997;-66
2021/04/10 10:49:35;;;;;;;14.07;6.53;;;;;;;15.58;24.37;100245.67;1750057;82;21159;-65
2021/04/10 10:52:08;;;;;;;7.42;4.87;;;;;;;15.52;23.65;100240.86;1749709;82;21195;-65
2021/04/10 10:54:38;;;;;;;10.88;4.75;;;;;;;15.24;23.58;100236.08;1750013;81;21607;-64
2021/04/10 10:57:16;;;;;;;6.33;3.77;;;;;;;14.98;25.08;100253.56;1749934;80;20993;-66
2021/04/10 10:59:46;;;;;;;6.60;4.37;;;;;;;14.95;24.93;100239.02;1743584;80;21134;-66
2021/04/10 11:02:19;;;;;;;8.35;4.03;;;;;;;15.00;25.34;100233.31;1748994;81;21064;-65
2021/04/10 11:04:47;;;;;;;7.75;4.90;;;;;;;15.03;24.48;100228.48;1763061;79;22215;-65
2021/04/10 11:07:15;;;;;;;9.03;4.12;;;;;;;15.12;25.52;100219.59;1767415;80;21575;-65
2021/04/10 11:09:43;;;;;;;9.45;4.55;;;;;;;15.34;24.87;100215.79;1715870;81;21503;-64
2021/04/10 11:12:15;;;;;;;5.53;3.75;;;;;;;15.40;24.31;100220.57;1765955;80;20935;-64
2021/04/10 11:14:46;;;;;;;13.32;4.97;;;;;;;15.44;23.98;100227.88;1765974;80;21053;-64
2021/04/10 11:17:30;;;;;;;15.10;4.85;;;;;;;15.49;24.29;100228.27;1765955;81;21394;-65
2021/04/10 11:20:02;;;;;;;7.05;4.10;;;;;;;15.45;23.81;100219.00;1765901;80;20997;-64
2021/04/10 11:22:29;;;;;;;10.75;5.40;;;;;;;15.31;24.58;100217.02;1750281;81;21090;-65
2021/04/10 11:25:01;;;;;;;9.20;4.60;;;;;;;15.38;24.91;100222.86;1765950;81;21041;-65
2021/04/10 11:27:34;;;;;;;6.10;4.05;;;;;;;15.56;24.95;100208.38;1766137;80;21057;-65
2021/04/10 11:30:10;;;;;;;9.70;4.55;;;;;;;15.93;25.11;100203.95;1765997;79;21357;-65
2021/04/10 11:32:44;;;;;;;7.83;4.62;;;;;;;16.34;25.29;100205.91;1765364;79;21140;-65
2021/04/10 11:35:20;;;;;;;7.00;4.55;;;;;;;16.65;23.87;100204.94;1766628;79;20922;-65